createdAt,value
2022-08-25T00:01:31.310Z,2.50
2022-08-25T00:04:00.606Z,2.77
2022-08-25T00:06:28.856Z,2.70
2022-08-25T00:08:59.562Z,2.83
2022-08-25T00:11:32.100Z,2.50
2022-08-25T00:14:06.186Z,2.70
2022-08-25T00:16:33.574Z,2.70
2022-08-25T00:19:03.384Z,3.00
2022-08-25T00:21:31.884Z,2.90
2022-08-25T00:23:59.547Z,3.23
2022-08-25T00:26:27.653Z,3.10
2022-08-25T00:29:01.261Z,2.77
2022-08-25T00:31:38.153Z,2.90
2022-08-25T00:34:12.473Z,2.60
2022-08-25T00:36:39.597Z,2.57
2022-08-25T00:39:08.234Z,2.53
2022-08-25T00:41:36.411Z,2.60
2022-08-25T00:44:05.580Z,2.73
2022-08-25T00:46:39.535Z,2.93
2022-08-25T00:49:24.947Z,3.00
2022-08-25T00:51:54.388Z,3.07
2022-08-25T00:54:25.682Z,3.10
2022-08-25T00:56:52.763Z,3.20
2022-08-25T00:59:21.491Z,3.43
2022-08-25T01:01:49.406Z,3.30
2022-08-25T01:04:16.578Z,3.47
2022-08-25T01:06:45.312Z,3.67
2022-08-25T01:09:16.028Z,3.13
2022-08-25T01:11:44.585Z,3.37
2022-08-25T01:14:13.027Z,3.67
2022-08-25T01:16:40.020Z,3.30
2022-08-25T01:19:08.116Z,3.33
2022-08-25T01:21:42.098Z,3.20
2022-08-25T01:24:11.721Z,3.47
2022-08-25T01:26:38.500Z,2.90
2022-08-25T01:29:25.246Z,3.20
2022-08-25T01:31:57.564Z,2.90
2022-08-25T01:34:29.723Z,3.73
2022-08-25T01:36:57.894Z,3.30
2022-08-25T01:39:27.065Z,3.50
2022-08-25T01:42:03.052Z,3.40
2022-08-25T01:44:30.499Z,3.13
2022-08-25T01:46:57.871Z,3.70
2022-08-25T01:49:24.604Z,3.60
2022-08-25T01:52:11.266Z,3.00
2022-08-25T01:54:38.421Z,3.70
2022-08-25T01:57:05.233Z,3.37
2022-08-25T01:59:32.166Z,3.20
2022-08-25T02:02:00.918Z,3.30
2022-08-25T02:04:33.103Z,3.90
2022-08-25T02:07:03.306Z,3.30
2022-08-25T02:09:30.072Z,3.57
2022-08-25T02:11:57.142Z,3.60
2022-08-25T02:14:24.293Z,3.60
2022-08-25T02:16:53.909Z,3.37
2022-08-25T02:19:22.362Z,3.27
2022-08-25T02:21:49.576Z,3.40
2022-08-25T02:24:17.037Z,3.47
2022-08-25T02:26:44.217Z,3.60
2022-08-25T02:29:11.181Z,3.30
2022-08-25T02:31:38.197Z,3.53
2022-08-25T02:34:06.182Z,3.27
2022-08-25T02:36:33.078Z,3.37
2022-08-25T02:39:00.360Z,3.50
2022-08-25T02:41:27.918Z,3.30
2022-08-25T02:43:59.668Z,3.47
2022-08-25T02:46:26.797Z,3.70
2022-08-25T02:48:53.759Z,3.90
2022-08-25T02:51:22.490Z,3.80
2022-08-25T02:53:49.843Z,3.33
2022-08-25T02:56:18.416Z,3.57
2022-08-25T02:58:45.986Z,3.60
2022-08-25T03:01:13.347Z,3.53
2022-08-25T03:03:42.127Z,4.57
2022-08-25T03:06:12.702Z,3.53
2022-08-25T03:08:39.629Z,4.13
2022-08-25T03:11:06.957Z,3.70
2022-08-25T03:13:34.248Z,3.77
2022-08-25T03:16:01.954Z,3.97
2022-08-25T03:18:30.532Z,3.63
2022-08-25T03:20:58.095Z,4.07
2022-08-25T03:23:25.231Z,3.90
2022-08-25T03:26:12.919Z,3.80
2022-08-25T03:28:39.873Z,3.60
2022-08-25T03:31:06.695Z,3.33
2022-08-25T03:33:34.081Z,3.27
2022-08-25T03:36:01.015Z,3.83
2022-08-25T03:38:31.654Z,3.30
2022-08-25T03:41:00.325Z,3.30
2022-08-25T03:43:27.223Z,3.10
2022-08-25T03:45:53.993Z,3.67
2022-08-25T03:48:20.803Z,3.10
2022-08-25T03:50:51.922Z,3.50
2022-08-25T03:53:19.829Z,3.50
2022-08-25T03:55:47.178Z,3.10
2022-08-25T03:58:14.025Z,3.13
2022-08-25T04:00:41.303Z,3.70
2022-08-25T04:03:08.268Z,3.70
2022-08-25T04:05:35.403Z,3.10
2022-08-25T04:08:02.492Z,3.07
2022-08-25T04:10:29.843Z,2.80
2022-08-25T04:12:57.194Z,3.47
2022-08-25T04:15:25.361Z,3.27
2022-08-25T04:17:59.827Z,3.13
2022-08-25T04:20:26.622Z,3.40
2022-08-25T04:22:53.280Z,3.00
2022-08-25T04:25:20.140Z,2.90
2022-08-25T04:27:47.135Z,3.00
2022-08-25T04:30:14.747Z,3.17
2022-08-25T04:32:41.582Z,3.10
2022-08-25T04:35:08.746Z,3.27
2022-08-25T04:37:35.594Z,3.20
2022-08-25T04:40:02.766Z,2.90
2022-08-25T04:42:29.727Z,3.03
2022-08-25T04:44:56.429Z,3.27
2022-08-25T04:47:23.640Z,2.60
2022-08-25T04:49:50.854Z,2.93
2022-08-25T04:52:17.673Z,3.30
2022-08-25T04:54:45.082Z,2.63
2022-08-25T04:57:11.832Z,2.97
2022-08-25T04:59:38.997Z,2.77
2022-08-25T05:02:06.714Z,2.87
2022-08-25T05:04:35.601Z,2.63
2022-08-25T05:07:03.204Z,2.83
2022-08-25T05:09:32.369Z,3.10
2022-08-25T05:12:03.718Z,3.10
2022-08-25T05:14:31.697Z,3.20
2022-08-25T05:16:58.763Z,3.10
2022-08-25T05:19:26.497Z,3.00
2022-08-25T05:21:53.809Z,2.83
2022-08-25T05:24:21.644Z,3.13
2022-08-25T05:26:49.395Z,2.80
2022-08-25T05:29:16.447Z,3.20
2022-08-25T05:31:49.591Z,3.40
2022-08-25T05:34:19.003Z,3.67
2022-08-25T05:36:46.141Z,3.70
2022-08-25T05:39:12.981Z,3.50
2022-08-25T05:41:39.740Z,3.30
2022-08-25T05:44:06.919Z,3.33
2022-08-25T05:46:33.773Z,3.10
2022-08-25T05:49:00.674Z,2.70
2022-08-25T05:51:27.948Z,2.70
2022-08-25T05:53:54.707Z,2.50
2022-08-25T05:56:21.547Z,2.83
2022-08-25T05:58:48.526Z,3.13
2022-08-25T06:01:44.853Z,2.90
2022-08-25T06:04:12.899Z,2.90
2022-08-25T06:06:40.178Z,2.97
2022-08-25T06:09:08.839Z,2.77
2022-08-25T06:11:37.428Z,2.90
2022-08-25T06:14:04.838Z,3.07
2022-08-25T06:16:31.956Z,3.40
2022-08-25T06:18:59.054Z,3.20
2022-08-25T06:21:26.034Z,3.10
2022-08-25T06:23:52.849Z,3.30
2022-08-25T06:26:21.497Z,3.53
2022-08-25T06:28:50.818Z,2.80
2022-08-25T06:31:17.800Z,2.47
2022-08-25T06:33:45.048Z,2.80
2022-08-25T06:36:11.821Z,2.87
2022-08-25T06:38:38.529Z,3.40
2022-08-25T06:41:06.537Z,2.93
2022-08-25T06:43:34.443Z,3.23
2022-08-25T06:46:14.455Z,3.23
2022-08-25T06:48:41.180Z,3.13
2022-08-25T06:51:14.016Z,3.43
2022-08-25T06:53:42.920Z,3.23
2022-08-25T06:56:10.258Z,4.10
2022-08-25T06:58:37.126Z,4.10
2022-08-25T07:01:20.054Z,3.67
2022-08-25T07:03:48.372Z,3.80
2022-08-25T07:06:16.556Z,3.17
2022-08-25T07:08:46.170Z,3.47
2022-08-25T07:11:16.062Z,2.90
2022-08-25T07:13:44.034Z,2.90
2022-08-25T07:16:15.380Z,2.70
2022-08-25T07:18:42.624Z,2.90
2022-08-25T07:21:12.386Z,3.20
2022-08-25T07:23:40.542Z,2.83
2022-08-25T07:26:36.720Z,2.93
2022-08-25T07:29:02.214Z,2.70
2022-08-25T07:31:30.217Z,2.60
2022-08-25T07:34:16.278Z,2.73
2022-08-25T07:36:44.178Z,2.73
2022-08-25T07:39:11.050Z,2.60
2022-08-25T07:41:41.605Z,2.70
2022-08-25T07:44:10.126Z,2.90
2022-08-25T07:46:37.517Z,2.60
2022-08-25T07:49:13.319Z,2.70
2022-08-25T07:52:04.531Z,2.63
2022-08-25T07:54:33.724Z,2.40
2022-08-25T07:57:02.431Z,2.63
2022-08-25T07:59:29.308Z,2.43
2022-08-25T08:01:56.692Z,2.50
2022-08-25T08:04:23.527Z,2.57
2022-08-25T08:06:50.161Z,2.20
2022-08-25T08:09:16.905Z,2.37
2022-08-25T08:11:53.956Z,2.63
2022-08-25T08:14:21.366Z,2.30
2022-08-25T08:16:48.079Z,2.47
2022-08-25T08:19:15.608Z,2.43
2022-08-25T08:21:42.885Z,2.13
2022-08-25T08:24:24.783Z,2.50
2022-08-25T08:26:59.135Z,2.73
2022-08-25T08:29:26.369Z,2.30
2022-08-25T08:31:53.408Z,2.93
2022-08-25T08:34:20.144Z,2.40
2022-08-25T08:36:52.716Z,2.40
2022-08-25T08:39:19.992Z,2.10
2022-08-25T08:42:16.813Z,2.27
2022-08-25T08:44:47.044Z,2.40
2022-08-25T08:47:32.883Z,2.80
2022-08-25T08:50:30.795Z,2.20
2022-08-25T08:53:10.884Z,2.40
2022-08-25T08:55:44.427Z,2.30
2022-08-25T08:58:20.945Z,2.30
2022-08-25T09:00:58.259Z,2.40
2022-08-25T09:03:55.307Z,2.57
2022-08-25T09:06:32.331Z,2.20
2022-08-25T09:09:02.717Z,2.20
2022-08-25T09:12:13.454Z,2.33
2022-08-25T09:14:53.744Z,2.20
2022-08-25T09:17:54.298Z,1.80
2022-08-25T09:20:43.543Z,2.30
2022-08-25T09:23:28.724Z,2.30
2022-08-25T09:26:28.430Z,2.10
2022-08-25T09:29:26.235Z,1.90
2022-08-25T09:31:58.847Z,2.30
2022-08-25T09:34:34.466Z,2.17
2022-08-25T09:37:01.528Z,2.37
2022-08-25T09:39:29.834Z,1.90
2022-08-25T09:41:59.190Z,2.13
2022-08-25T09:44:45.353Z,2.10
2022-08-25T09:47:18.350Z,1.60
2022-08-25T09:49:47.944Z,1.83
2022-08-25T09:52:32.774Z,1.90
2022-08-25T09:55:21.927Z,2.07
2022-08-25T09:57:53.208Z,2.20
2022-08-25T10:00:22.293Z,1.70
2022-08-25T10:03:10.111Z,2.10
2022-08-25T10:05:45.912Z,2.07
2022-08-25T10:08:24.820Z,1.87
2022-08-25T10:10:57.535Z,1.80
2022-08-25T10:13:38.776Z,1.80
2022-08-25T10:16:19.952Z,1.77
2022-08-25T10:19:04.880Z,1.90
2022-08-25T10:21:31.950Z,1.90
2022-08-25T10:24:01.576Z,1.90
2022-08-25T10:26:50.132Z,1.77
2022-08-25T10:29:27.360Z,1.70
2022-08-25T10:32:12.024Z,1.97
2022-08-25T10:34:51.647Z,1.83
2022-08-25T10:37:57.360Z,1.70
2022-08-25T10:40:34.131Z,1.80
2022-08-25T10:43:28.783Z,1.57
2022-08-25T10:46:12.571Z,1.63
2022-08-25T10:48:43.324Z,1.83
2022-08-25T10:51:34.423Z,1.60
2022-08-25T10:54:35.349Z,1.50
2022-08-25T10:57:27.684Z,1.50
2022-08-25T11:00:12.405Z,1.83
2022-08-25T11:02:48.726Z,1.70
2022-08-25T11:05:36.842Z,1.77
2022-08-25T11:08:44.578Z,1.80
2022-08-25T11:11:31.488Z,1.40
2022-08-25T11:14:09.415Z,1.80
2022-08-25T11:16:43.529Z,2.00
2022-08-25T11:19:28.477Z,1.80
2022-08-25T11:22:02.483Z,1.53
2022-08-25T11:24:36.211Z,1.70
2022-08-25T11:27:05.883Z,2.00
2022-08-25T11:29:36.753Z,1.80
2022-08-25T11:32:04.281Z,1.80
2022-08-25T11:34:34.152Z,1.70
2022-08-25T11:37:11.064Z,1.70
2022-08-25T11:40:11.108Z,1.70
2022-08-25T11:42:55.746Z,1.97
2022-08-25T11:46:01.013Z,1.50
2022-08-25T11:48:47.051Z,1.73
2022-08-25T11:51:36.383Z,1.87
2022-08-25T11:54:18.726Z,1.83
2022-08-25T11:56:57.065Z,1.90
2022-08-25T11:59:52.404Z,1.80
2022-08-25T12:02:37.158Z,1.80
2022-08-25T12:05:06.338Z,1.90
2022-08-25T12:08:22.859Z,1.80
2022-08-25T12:10:57.469Z,1.70
2022-08-25T12:13:28.177Z,2.00
2022-08-25T12:15:56.764Z,2.00
2022-08-25T12:18:24.895Z,1.70
2022-08-25T12:20:54.981Z,1.80
2022-08-25T12:23:44.930Z,1.67
2022-08-25T12:26:31.818Z,1.90
2022-08-25T12:29:21.415Z,2.63
2022-08-25T12:32:04.420Z,1.67
2022-08-25T12:34:46.973Z,2.00
2022-08-25T12:37:16.734Z,1.80
2022-08-25T12:40:03.091Z,1.80
2022-08-25T12:42:45.922Z,1.90
2022-08-25T12:45:32.359Z,1.67
2022-08-25T12:48:28.180Z,1.67
2022-08-25T12:51:05.261Z,1.70
2022-08-25T12:53:43.874Z,1.53
2022-08-25T12:56:22.515Z,1.63
2022-08-25T12:59:01.491Z,1.70
2022-08-25T13:01:59.129Z,1.60
2022-08-25T13:04:41.510Z,2.10
2022-08-25T13:07:23.830Z,1.70
2022-08-25T13:10:21.370Z,2.13
2022-08-25T13:13:05.283Z,1.90
2022-08-25T13:15:55.358Z,1.73
2022-08-25T13:18:31.344Z,1.93
2022-08-25T13:21:37.183Z,1.70
2022-08-25T13:24:08.581Z,2.07
2022-08-25T13:26:47.384Z,1.90
2022-08-25T13:29:27.862Z,1.83
2022-08-25T13:31:59.386Z,1.80
2022-08-25T13:34:35.226Z,1.90
2022-08-25T13:37:26.990Z,2.00
2022-08-25T13:40:12.268Z,2.20
2022-08-25T13:42:55.606Z,2.00
2022-08-25T13:45:31.649Z,1.60
2022-08-25T13:48:02.172Z,1.80
2022-08-25T13:50:37.711Z,1.93
2022-08-25T13:53:16.174Z,1.60
2022-08-25T13:56:40.013Z,1.93
2022-08-25T13:59:56.575Z,1.87
2022-08-25T14:02:45.172Z,1.77
2022-08-25T14:05:32.226Z,1.90
2022-08-25T14:08:16.246Z,1.87
2022-08-25T14:11:02.857Z,2.07
2022-08-25T14:13:32.532Z,1.63
2022-08-25T14:16:14.328Z,1.97
2022-08-25T14:18:48.536Z,1.80
2022-08-25T14:21:15.730Z,1.60
2022-08-25T14:23:42.758Z,1.90
2022-08-25T14:26:09.960Z,1.73
2022-08-25T14:28:37.133Z,1.70
2022-08-25T14:31:14.281Z,1.70
2022-08-25T14:34:10.216Z,1.90
2022-08-25T14:36:39.429Z,2.10
2022-08-25T14:39:10.068Z,1.83
2022-08-25T14:41:38.726Z,2.03
2022-08-25T14:44:06.973Z,2.00
2022-08-25T14:46:36.608Z,2.13
2022-08-25T14:49:05.562Z,1.63
2022-08-25T14:51:33.441Z,1.97
2022-08-25T14:54:06.745Z,1.80
2022-08-25T14:56:34.771Z,1.80
2022-08-25T14:59:02.108Z,1.90
2022-08-25T15:01:31.713Z,1.90
2022-08-25T15:04:04.094Z,1.90
2022-08-25T15:06:30.905Z,1.50
2022-08-25T15:09:11.706Z,2.00
2022-08-25T15:11:42.713Z,2.47
2022-08-25T15:14:12.167Z,2.60
2022-08-25T15:16:45.755Z,2.57
2022-08-25T15:19:16.133Z,2.73
2022-08-25T15:21:44.808Z,2.63
2022-08-25T15:24:12.376Z,2.40
2022-08-25T15:29:23.045Z,2.73
2022-08-25T15:31:50.194Z,2.97
2022-08-25T15:34:17.530Z,3.07
2022-08-25T15:36:46.696Z,3.33
2022-08-25T15:39:14.760Z,3.37
2022-08-25T15:41:46.918Z,2.97
2022-08-25T15:44:16.552Z,3.27
2022-08-25T15:46:46.914Z,2.97
2022-08-25T15:49:23.480Z,3.00
2022-08-25T15:51:55.250Z,3.03
2022-08-25T15:54:23.870Z,3.00
2022-08-25T15:56:54.495Z,2.87
2022-08-25T15:59:21.951Z,3.27
2022-08-25T16:01:53.441Z,2.93
2022-08-25T16:04:28.923Z,3.13
2022-08-25T16:06:56.179Z,3.43
2022-08-25T16:09:23.840Z,3.40
2022-08-25T16:11:55.909Z,3.43
2022-08-25T16:14:25.428Z,4.50
2022-08-25T16:16:58.504Z,6.40
2022-08-25T16:19:28.338Z,5.67
2022-08-25T16:21:55.936Z,5.17
2022-08-25T16:24:22.695Z,4.77
2022-08-25T16:26:51.753Z,6.13
2022-08-25T16:29:19.187Z,5.30
2022-08-25T16:31:53.277Z,5.90
2022-08-25T16:34:28.569Z,4.97
2022-08-25T16:36:58.166Z,4.07
2022-08-25T16:39:26.263Z,4.27
2022-08-25T16:41:53.068Z,4.70
2022-08-25T16:44:22.783Z,4.43
2022-08-25T16:46:50.066Z,4.80
2022-08-25T16:49:17.803Z,4.67
2022-08-25T16:51:44.945Z,5.00
2022-08-25T16:54:33.511Z,4.50
2022-08-25T16:57:00.836Z,4.70
2022-08-25T16:59:27.706Z,3.93
2022-08-25T17:01:54.783Z,4.30
2022-08-25T17:04:27.550Z,3.77
2022-08-25T17:06:59.837Z,3.97
2022-08-25T17:09:26.866Z,4.03
2022-08-25T17:11:56.837Z,4.30
2022-08-25T17:14:24.022Z,4.10
2022-08-25T17:16:57.020Z,4.00
2022-08-25T17:19:25.817Z,3.77
2022-08-25T17:21:54.826Z,4.00
2022-08-25T17:24:22.354Z,3.73
2022-08-25T17:26:56.466Z,4.30
2022-08-25T17:29:23.252Z,4.60
2022-08-25T17:31:51.250Z,4.30
2022-08-25T17:34:23.186Z,5.03
2022-08-25T17:36:53.185Z,6.50
2022-08-25T17:39:22.355Z,6.37
2022-08-25T17:41:50.555Z,7.47
2022-08-25T17:44:17.688Z,7.43
2022-08-25T17:46:47.637Z,6.60
2022-08-25T17:49:16.256Z,6.27
2022-08-25T17:51:43.004Z,5.90
2022-08-25T17:54:10.209Z,7.63
2022-08-25T17:56:37.866Z,6.40
2022-08-25T17:59:04.676Z,7.80
2022-08-25T18:01:33.951Z,6.80
2022-08-25T18:04:00.782Z,6.30
2022-08-25T18:06:29.586Z,7.20
2022-08-25T18:08:59.741Z,6.70
2022-08-25T18:11:27.789Z,7.87
2022-08-25T18:13:55.157Z,6.90
2022-08-25T18:16:22.821Z,8.10
2022-08-25T18:18:49.564Z,6.77
2022-08-25T18:21:20.348Z,7.13
2022-08-25T18:23:47.784Z,7.70
2022-08-25T18:26:17.199Z,8.27
2022-08-25T18:28:48.978Z,7.63
2022-08-25T18:31:15.867Z,9.40
2022-08-25T18:33:47.205Z,8.07
2022-08-25T18:36:17.879Z,8.40
2022-08-25T18:39:04.163Z,9.00
2022-08-25T18:41:36.923Z,8.27
2022-08-25T18:44:04.880Z,9.90
2022-08-25T18:46:31.649Z,10.27
2022-08-25T18:48:59.203Z,9.37
2022-08-25T18:51:26.006Z,8.70
2022-08-25T18:53:54.511Z,9.07
2022-08-25T18:56:26.521Z,8.87
2022-08-25T18:58:53.306Z,11.70
2022-08-25T19:01:21.335Z,10.70
2022-08-25T19:03:48.571Z,10.73
2022-08-25T19:06:15.722Z,10.60
2022-08-25T19:08:43.601Z,11.63
2022-08-25T19:11:10.697Z,11.87
2022-08-25T19:13:38.493Z,11.90
2022-08-25T19:16:17.666Z,13.03
2022-08-25T19:18:47.044Z,12.17
2022-08-25T19:21:13.951Z,11.70
2022-08-25T19:23:40.716Z,11.30
2022-08-25T19:26:13.989Z,10.97
2022-08-25T19:28:49.006Z,11.00
2022-08-25T19:31:18.132Z,9.97
2022-08-25T19:33:45.942Z,9.90
2022-08-25T19:36:13.072Z,9.93
2022-08-25T19:38:39.911Z,8.93
2022-08-25T19:41:10.403Z,8.40
2022-08-25T19:43:54.985Z,7.83
2022-08-25T19:46:23.209Z,7.27
2022-08-25T19:48:50.563Z,7.43
2022-08-25T19:51:19.437Z,7.27
2022-08-25T19:53:54.274Z,6.23
2022-08-25T19:56:22.544Z,6.83
2022-08-25T19:58:49.398Z,6.27
2022-08-25T20:01:18.279Z,6.70
2022-08-25T20:03:45.398Z,6.60
2022-08-25T20:06:15.761Z,6.10
2022-08-25T20:08:43.234Z,7.07
2022-08-25T20:11:09.905Z,6.03
2022-08-25T20:13:37.162Z,6.70
2022-08-25T20:16:04.424Z,5.87
2022-08-25T20:18:32.530Z,5.97
2022-08-25T20:20:59.338Z,5.87
2022-08-25T20:23:44.737Z,5.97
2022-08-25T20:26:11.513Z,6.33
2022-08-25T20:28:42.042Z,6.40
2022-08-25T20:31:09.434Z,6.00
2022-08-25T20:33:36.279Z,5.90
2022-08-25T20:36:04.866Z,6.13
2022-08-25T20:38:32.278Z,5.87
2022-08-25T20:41:00.742Z,5.77
2022-08-25T20:43:28.002Z,5.20
2022-08-25T20:46:02.031Z,5.00
2022-08-25T20:48:28.922Z,4.90
2022-08-25T20:50:58.160Z,4.60
2022-08-25T20:53:25.735Z,4.50
2022-08-25T20:55:55.274Z,4.20
2022-08-25T20:58:26.829Z,3.67
2022-08-25T21:00:55.270Z,3.53
2022-08-25T21:03:34.834Z,3.33
2022-08-25T21:06:14.239Z,3.57
2022-08-25T21:09:04.086Z,3.27
2022-08-25T21:11:31.196Z,3.13
2022-08-25T21:14:05.986Z,3.20
2022-08-25T21:16:38.344Z,2.83
2022-08-25T21:19:16.467Z,2.80
2022-08-25T21:21:44.522Z,2.80
2022-08-25T21:24:18.690Z,2.97
2022-08-25T21:26:51.085Z,3.13
2022-08-25T21:29:19.653Z,3.33
2022-08-25T21:31:47.747Z,2.20
2022-08-25T21:34:17.358Z,2.40
2022-08-25T21:36:46.122Z,2.90
2022-08-25T21:39:13.180Z,3.00
2022-08-25T21:41:42.806Z,2.60
2022-08-25T21:44:10.755Z,3.00
2022-08-25T21:46:40.538Z,2.83
2022-08-25T21:49:27.846Z,2.80
2022-08-25T21:52:00.865Z,2.10
2022-08-25T21:54:43.371Z,2.40
2022-08-25T21:57:10.282Z,2.80
2022-08-25T21:59:40.418Z,3.10
2022-08-25T22:02:11.292Z,2.70
2022-08-25T22:04:39.366Z,2.60
2022-08-25T22:07:08.033Z,3.17
2022-08-25T22:09:35.668Z,2.80
2022-08-25T22:12:03.553Z,3.00
2022-08-25T22:14:30.508Z,3.10
2022-08-25T22:16:57.306Z,3.33
2022-08-25T22:19:24.885Z,3.57
2022-08-25T22:21:52.811Z,3.30
2022-08-25T22:24:22.814Z,3.90
2022-08-25T22:26:55.855Z,3.83
2022-08-25T22:29:25.363Z,3.57
2022-08-25T22:31:54.209Z,3.67
2022-08-25T22:34:30.536Z,4.23
2022-08-25T22:36:59.995Z,3.87
2022-08-25T22:39:26.867Z,4.17
2022-08-25T22:41:53.899Z,4.20
2022-08-25T22:44:20.608Z,3.90
2022-08-25T22:46:47.361Z,3.63
2022-08-25T22:49:14.045Z,3.40
2022-08-25T22:51:41.211Z,3.70
2022-08-25T22:54:09.485Z,3.80
2022-08-25T22:56:37.376Z,3.60
2022-08-25T22:59:08.427Z,3.57
2022-08-25T23:01:35.366Z,3.40
2022-08-25T23:04:03.874Z,2.87
2022-08-25T23:06:31.465Z,2.83
2022-08-25T23:08:59.579Z,2.93
2022-08-25T23:11:29.026Z,2.60
2022-08-25T23:14:00.394Z,2.40
2022-08-25T23:16:28.317Z,2.40
2022-08-25T23:18:55.217Z,2.53
2022-08-25T23:21:41.283Z,2.27
2022-08-25T23:24:11.041Z,2.30
2022-08-25T23:26:42.583Z,2.10
2022-08-25T23:29:17.997Z,1.93
2022-08-25T23:31:46.572Z,1.93
2022-08-25T23:34:13.661Z,1.60
2022-08-25T23:36:40.529Z,1.90
2022-08-25T23:39:07.800Z,2.00
2022-08-25T23:41:34.978Z,2.00
2022-08-25T23:44:05.340Z,2.10
2022-08-25T23:46:35.073Z,1.87
2022-08-25T23:49:04.781Z,1.83
2022-08-25T23:51:33.971Z,2.00
2022-08-25T23:54:09.476Z,1.90
2022-08-25T23:56:44.609Z,1.93
2022-08-25T23:59:18.236Z,2.10
